sensor_id;sensor_type;location;lat;lon;timestamp;pressure;altitude;pressure_sealevel;temperature;humidity
73981;BME280;62348;51.412;5.436;2023-02-04T00:01:09;103139.25;;;6.84;98.23
73981;BME280;62348;51.412;5.436;2023-02-04T00:03:34;103134.06;;;6.83;98.27
73981;BME280;62348;51.412;5.436;2023-02-04T00:06:00;103134.25;;;6.81;98.10
73981;BME280;62348;51.412;5.436;2023-02-04T00:08:25;103129.88;;;6.80;98.28
73981;BME280;62348;51.412;5.436;2023-02-04T00:10:50;103128.88;;;6.81;98.19
73981;BME280;62348;51.412;5.436;2023-02-04T00:13:16;103129.88;;;6.80;97.91
73981;BME280;62348;51.412;5.436;2023-02-04T00:15:41;103136.47;;;6.78;98.35
73981;BME280;62348;51.412;5.436;2023-02-04T00:18:06;103114.13;;;6.77;98.03
73981;BME280;62348;51.412;5.436;2023-02-04T00:20:33;103124.38;;;6.74;97.62
73981;BME280;62348;51.412;5.436;2023-02-04T00:22:59;103123.53;;;6.73;97.58
73981;BME280;62348;51.412;5.436;2023-02-04T00:25:24;103122.69;;;6.73;97.66
73981;BME280;62348;51.412;5.436;2023-02-04T00:27:49;103116.66;;;6.71;97.81
73981;BME280;62348;51.412;5.436;2023-02-04T00:30:15;103126.78;;;6.69;97.76
73981;BME280;62348;51.412;5.436;2023-02-04T00:32:40;103118.72;;;6.69;97.86
73981;BME280;62348;51.412;5.436;2023-02-04T00:35:06;103122.22;;;6.69;97.94
73981;BME280;62348;51.412;5.436;2023-02-04T00:37:32;103126.78;;;6.69;97.54
73981;BME280;62348;51.412;5.436;2023-02-04T00:39:57;103139.22;;;6.70;97.91
73981;BME280;62348;51.412;5.436;2023-02-04T00:42:22;103142.72;;;6.70;98.05
73981;BME280;62348;51.412;5.436;2023-02-04T00:44:48;103142.56;;;6.72;98.05
73981;BME280;62348;51.412;5.436;2023-02-04T00:47:14;103136.53;;;6.70;97.87
73981;BME280;62348;51.412;5.436;2023-02-04T00:49:39;103145.25;;;6.72;97.83
73981;BME280;62348;51.412;5.436;2023-02-04T00:52:04;103145.03;;;6.73;97.76
73981;BME280;62348;51.412;5.436;2023-02-04T00:54:30;103137.34;;;6.70;97.69
73981;BME280;62348;51.412;5.436;2023-02-04T00:56:55;103137.19;;;6.72;97.87
73981;BME280;62348;51.412;5.436;2023-02-04T00:59:21;103140.03;;;6.70;97.76
73981;BME280;62348;51.412;5.436;2023-02-04T01:01:46;103144.09;;;6.66;97.48
73981;BME280;62348;51.412;5.436;2023-02-04T01:04:12;103141.91;;;6.70;97.67
73981;BME280;62348;51.412;5.436;2023-02-04T01:06:37;103149.75;;;6.71;97.34
73981;BME280;62348;51.412;5.436;2023-02-04T01:09:03;103139.88;;;6.72;97.62
73981;BME280;62348;51.412;5.436;2023-02-04T01:11:29;103154.31;;;6.71;97.74
73981;BME280;62348;51.412;5.436;2023-02-04T01:13:55;103150.78;;;6.70;97.51
73981;BME280;62348;51.412;5.436;2023-02-04T01:16:20;103151.63;;;6.71;97.70
73981;BME280;62348;51.412;5.436;2023-02-04T01:18:46;103157.16;;;6.69;97.25
73981;BME280;62348;51.412;5.436;2023-02-04T01:21:11;103161.06;;;6.67;97.67
73981;BME280;62348;51.412;5.436;2023-02-04T01:23:37;103155.50;;;6.68;97.46
73981;BME280;62348;51.412;5.436;2023-02-04T01:26:02;103164.41;;;6.69;97.70
73981;BME280;62348;51.412;5.436;2023-02-04T01:28:28;103170.13;;;6.65;97.83
73981;BME280;62348;51.412;5.436;2023-02-04T01:30:54;103171.81;;;6.67;97.72
73981;BME280;62348;51.412;5.436;2023-02-04T01:33:19;103169.13;;;6.67;97.80
73981;BME280;62348;51.412;5.436;2023-02-04T01:35:44;103172.47;;;6.69;97.90
73981;BME280;62348;51.412;5.436;2023-02-04T01:38:10;103166.44;;;6.67;97.42
73981;BME280;62348;51.412;5.436;2023-02-04T01:40:39;103158.38;;;6.67;97.51
73981;BME280;62348;51.412;5.436;2023-02-04T01:43:05;103173.84;;;6.64;97.37
73981;BME280;62348;51.412;5.436;2023-02-04T01:45:31;103179.22;;;6.64;97.42
73981;BME280;62348;51.412;5.436;2023-02-04T01:48:03;103181.25;;;6.62;97.33
73981;BME280;62348;51.412;5.436;2023-02-04T01:50:29;103183.09;;;6.62;97.38
73981;BME280;62348;51.412;5.436;2023-02-04T01:52:55;103184.47;;;6.58;97.34
73981;BME280;62348;51.412;5.436;2023-02-04T01:55:25;103184.63;;;6.56;97.85
73981;BME280;62348;51.412;5.436;2023-02-04T01:57:51;103188.34;;;6.55;97.58
73981;BME280;62348;51.412;5.436;2023-02-04T02:00:29;103191.69;;;6.57;97.70
73981;BME280;62348;51.412;5.436;2023-02-04T02:02:54;103190.22;;;6.55;97.42
73981;BME280;62348;51.412;5.436;2023-02-04T02:05:48;103190.00;;;6.56;97.57
73981;BME280;62348;51.412;5.436;2023-02-04T02:08:15;103192.91;;;6.55;97.66
73981;BME280;62348;51.412;5.436;2023-02-04T02:10:43;103196.09;;;6.50;97.72
73981;BME280;62348;51.412;5.436;2023-02-04T02:13:12;103191.56;;;6.51;97.61
73981;BME280;62348;51.412;5.436;2023-02-04T02:15:38;103187.38;;;6.48;97.78
73981;BME280;62348;51.412;5.436;2023-02-04T02:18:04;103193.94;;;6.45;97.94
73981;BME280;62348;51.412;5.436;2023-02-04T02:20:29;103193.13;;;6.45;97.92
73981;BME280;62348;51.412;5.436;2023-02-04T02:25:20;103192.25;;;6.44;97.86
73981;BME280;62348;51.412;5.436;2023-02-04T02:27:46;103193.47;;;6.42;97.89
73981;BME280;62348;51.412;5.436;2023-02-04T02:30:12;103194.66;;;6.39;98.18
73981;BME280;62348;51.412;5.436;2023-02-04T02:32:39;103185.91;;;6.37;97.90
73981;BME280;62348;51.412;5.436;2023-02-04T02:35:05;103189.63;;;6.36;97.71
73981;BME280;62348;51.412;5.436;2023-02-04T02:37:31;103189.78;;;6.35;97.65
73981;BME280;62348;51.412;5.436;2023-02-04T02:39:57;103188.31;;;6.32;97.67
73981;BME280;62348;51.412;5.436;2023-02-04T02:42:22;103187.97;;;6.27;97.44
73981;BME280;62348;51.412;5.436;2023-02-04T02:44:49;103198.88;;;6.25;97.51
73981;BME280;62348;51.412;5.436;2023-02-04T02:47:16;103192.19;;;6.21;97.23
73981;BME280;62348;51.412;5.436;2023-02-04T02:49:43;103203.78;;;6.22;97.29
73981;BME280;62348;51.412;5.436;2023-02-04T02:52:12;103211.34;;;6.18;97.18
73981;BME280;62348;51.412;5.436;2023-02-04T02:54:38;103210.69;;;6.16;97.01
73981;BME280;62348;51.412;5.436;2023-02-04T02:57:11;103213.06;;;6.11;96.91
73981;BME280;62348;51.412;5.436;2023-02-04T02:59:37;103217.28;;;6.05;96.46
73981;BME280;62348;51.412;5.436;2023-02-04T03:02:03;103221.13;;;6.03;96.36
73981;BME280;62348;51.412;5.436;2023-02-04T03:04:32;103227.19;;;5.97;96.16
73981;BME280;62348;51.412;5.436;2023-02-04T03:06:59;103226.38;;;5.96;96.19
73981;BME280;62348;51.412;5.436;2023-02-04T03:09:26;103231.53;;;5.90;96.11
73981;BME280;62348;51.412;5.436;2023-02-04T03:11:52;103233.56;;;5.87;95.56
73981;BME280;62348;51.412;5.436;2023-02-04T03:14:18;103230.56;;;5.82;95.84
73981;BME280;62348;51.412;5.436;2023-02-04T03:16:44;103235.59;;;5.77;95.70
73981;BME280;62348;51.412;5.436;2023-02-04T03:19:11;103234.06;;;5.75;95.49
73981;BME280;62348;51.412;5.436;2023-02-04T03:21:38;103241.66;;;5.71;95.58
73981;BME280;62348;51.412;5.436;2023-02-04T03:24:05;103226.19;;;5.65;95.53
73981;BME280;62348;51.412;5.436;2023-02-04T03:26:31;103232.75;;;5.62;95.25
73981;BME280;62348;51.412;5.436;2023-02-04T03:28:58;103230.59;;;5.58;95.17
73981;BME280;62348;51.412;5.436;2023-02-04T03:31:23;103232.94;;;5.53;95.23
73981;BME280;62348;51.412;5.436;2023-02-04T03:33:49;103234.78;;;5.52;95.02
73981;BME280;62348;51.412;5.436;2023-02-04T03:36:14;103247.03;;;5.46;95.26
73981;BME280;62348;51.412;5.436;2023-02-04T03:38:39;103241.31;;;5.41;94.65
73981;BME280;62348;51.412;5.436;2023-02-04T03:41:05;103247.69;;;5.40;94.58
73981;BME280;62348;51.412;5.436;2023-02-04T03:43:30;103244.50;;;5.37;94.86
73981;BME280;62348;51.412;5.436;2023-02-04T03:45:56;103249.53;;;5.32;94.71
73981;BME280;62348;51.412;5.436;2023-02-04T03:48:21;103260.59;;;5.28;94.89
73981;BME280;62348;51.412;5.436;2023-02-04T03:50:47;103259.25;;;5.24;94.72
73981;BME280;62348;51.412;5.436;2023-02-04T03:53:12;103264.78;;;5.23;94.78
73981;BME280;62348;51.412;5.436;2023-02-04T03:55:37;103272.16;;;5.21;95.04
73981;BME280;62348;51.412;5.436;2023-02-04T03:58:03;103259.06;;;5.18;94.57
73981;BME280;62348;51.412;5.436;2023-02-04T04:00:29;103260.75;;;5.11;94.40
73981;BME280;62348;51.412;5.436;2023-02-04T04:02:57;103265.44;;;5.08;94.49
73981;BME280;62348;51.412;5.436;2023-02-04T04:05:23;103263.75;;;5.07;94.60
73981;BME280;62348;51.412;5.436;2023-02-04T04:07:48;103271.13;;;5.05;94.33
73981;BME280;62348;51.412;5.436;2023-02-04T04:10:14;103265.56;;;4.99;94.63
73981;BME280;62348;51.412;5.436;2023-02-04T04:12:39;103266.06;;;4.94;94.57
73981;BME280;62348;51.412;5.436;2023-02-04T04:15:05;103267.06;;;4.93;94.66
73981;BME280;62348;51.412;5.436;2023-02-04T04:17:31;103266.06;;;4.86;94.27
73981;BME280;62348;51.412;5.436;2023-02-04T04:19:56;103265.19;;;4.85;94.70
73981;BME280;62348;51.412;5.436;2023-02-04T04:22:22;103265.69;;;4.81;94.78
73981;BME280;62348;51.412;5.436;2023-02-04T04:24:47;103268.22;;;4.82;94.69
73981;BME280;62348;51.412;5.436;2023-02-04T04:27:13;103268.38;;;4.81;95.17
73981;BME280;62348;51.412;5.436;2023-02-04T04:29:38;103272.75;;;4.82;96.03
73981;BME280;62348;51.412;5.436;2023-02-04T04:32:03;103272.03;;;4.80;96.50
73981;BME280;62348;51.412;5.436;2023-02-04T04:34:30;103269.22;;;4.81;96.68
73981;BME280;62348;51.412;5.436;2023-02-04T04:36:55;103271.56;;;4.84;96.79
73981;BME280;62348;51.412;5.436;2023-02-04T04:39:20;103287.50;;;4.86;97.05
73981;BME280;62348;51.412;5.436;2023-02-04T04:41:46;103282.16;;;4.86;97.46
73981;BME280;62348;51.412;5.436;2023-02-04T04:44:11;103290.00;;;4.87;97.78
73981;BME280;62348;51.412;5.436;2023-02-04T04:46:37;103287.00;;;4.91;98.22
73981;BME280;62348;51.412;5.436;2023-02-04T04:49:05;103288.84;;;4.90;98.47
73981;BME280;62348;51.412;5.436;2023-02-04T04:51:30;103292.38;;;4.91;99.09
73981;BME280;62348;51.412;5.436;2023-02-04T04:53:56;103288.19;;;4.88;99.20
73981;BME280;62348;51.412;5.436;2023-02-04T04:56:22;103287.53;;;4.94;99.26
73981;BME280;62348;51.412;5.436;2023-02-04T04:58:47;103290.72;;;4.98;99.46
73981;BME280;62348;51.412;5.436;2023-02-04T05:01:13;103287.88;;;4.99;99.62
73981;BME280;62348;51.412;5.436;2023-02-04T05:03:38;103287.72;;;5.01;100.00
73981;BME280;62348;51.412;5.436;2023-02-04T05:06:04;103283.03;;;5.03;99.46
73981;BME280;62348;51.412;5.436;2023-02-04T05:08:29;103290.06;;;5.04;100.00
73981;BME280;62348;51.412;5.436;2023-02-04T05:10:54;103291.56;;;5.06;99.54
73981;BME280;62348;51.412;5.436;2023-02-04T05:13:20;103289.59;;;5.08;100.00
73981;BME280;62348;51.412;5.436;2023-02-04T05:15:45;103293.94;;;5.09;99.89
73981;BME280;62348;51.412;5.436;2023-02-04T05:18:11;103299.13;;;5.11;99.82
73981;BME280;62348;51.412;5.436;2023-02-04T05:20:36;103300.63;;;5.14;100.00
73981;BME280;62348;51.412;5.436;2023-02-04T05:23:02;103306.66;;;5.16;100.00
73981;BME280;62348;51.412;5.436;2023-02-04T05:25:27;103308.19;;;5.18;100.00
73981;BME280;62348;51.412;5.436;2023-02-04T05:27:53;103313.91;;;5.23;100.00
73981;BME280;62348;51.412;5.436;2023-02-04T05:30:19;103317.09;;;5.27;100.00
73981;BME280;62348;51.412;5.436;2023-02-04T05:32:44;103318.78;;;5.28;100.00
73981;BME280;62348;51.412;5.436;2023-02-04T05:35:10;103316.78;;;5.30;100.00
73981;BME280;62348;51.412;5.436;2023-02-04T05:37:35;103327.50;;;5.30;100.00
73981;BME280;62348;51.412;5.436;2023-02-04T05:40:01;103324.81;;;5.30;100.00
73981;BME280;62348;51.412;5.436;2023-02-04T05:42:26;103316.78;;;5.30;100.00
73981;BME280;62348;51.412;5.436;2023-02-04T05:44:51;103317.44;;;5.32;100.00
73981;BME280;62348;51.412;5.436;2023-02-04T05:47:17;103326.47;;;5.31;99.54
73981;BME280;62348;51.412;5.436;2023-02-04T05:49:44;103325.50;;;5.32;99.53
73981;BME280;62348;51.412;5.436;2023-02-04T05:52:10;103315.75;;;5.31;99.54
73981;BME280;62348;51.412;5.436;2023-02-04T05:54:35;103309.03;;;5.27;99.47
73981;BME280;62348;51.412;5.436;2023-02-04T05:57:01;103313.56;;;5.26;99.50
73981;BME280;62348;51.412;5.436;2023-02-04T05:59:26;103316.09;;;5.28;99.23
73981;BME280;62348;51.412;5.436;2023-02-04T06:01:52;103313.72;;;5.25;99.00
73981;BME280;62348;51.412;5.436;2023-02-04T06:04:17;103310.38;;;5.23;99.48
73981;BME280;62348;51.412;5.436;2023-02-04T06:06:43;103312.22;;;5.22;98.89
73981;BME280;62348;51.412;5.436;2023-02-04T06:09:09;103312.38;;;5.21;98.52
73981;BME280;62348;51.412;5.436;2023-02-04T06:11:34;103325.81;;;5.21;98.83
73981;BME280;62348;51.412;5.436;2023-02-04T06:14:00;103326.31;;;5.16;98.51
73981;BME280;62348;51.412;5.436;2023-02-04T06:16:25;103329.97;;;5.15;98.59
73981;BME280;62348;51.412;5.436;2023-02-04T06:18:51;103331.81;;;5.15;98.66
73981;BME280;62348;51.412;5.436;2023-02-04T06:21:16;103340.72;;;5.15;98.59
73981;BME280;62348;51.412;5.436;2023-02-04T06:23:42;103349.78;;;5.14;98.79
73981;BME280;62348;51.412;5.436;2023-02-04T06:26:07;103354.13;;;5.15;98.91
73981;BME280;62348;51.412;5.436;2023-02-04T06:28:32;103349.78;;;5.14;98.76
73981;BME280;62348;51.412;5.436;2023-02-04T06:30:58;103360.50;;;5.14;98.94
73981;BME280;62348;51.412;5.436;2023-02-04T06:33:23;103375.88;;;5.12;98.69
73981;BME280;62348;51.412;5.436;2023-02-04T06:35:49;103378.41;;;5.14;98.94
73981;BME280;62348;51.412;5.436;2023-02-04T06:38:15;103377.59;;;5.13;99.32
73981;BME280;62348;51.412;5.436;2023-02-04T06:40:40;103381.09;;;5.14;99.32
73981;BME280;62348;51.412;5.436;2023-02-04T06:43:06;103382.94;;;5.13;99.36
73981;BME280;62348;51.412;5.436;2023-02-04T06:45:31;103381.97;;;5.14;99.10
73981;BME280;62348;51.412;5.436;2023-02-04T06:47:57;103383.47;;;5.17;99.21
73981;BME280;62348;51.412;5.436;2023-02-04T06:50:22;103387.81;;;5.18;99.37
73981;BME280;62348;51.412;5.436;2023-02-04T06:52:47;103389.66;;;5.17;99.61
73981;BME280;62348;51.412;5.436;2023-02-04T06:55:14;103393.69;;;5.21;99.72
73981;BME280;62348;51.412;5.436;2023-02-04T06:57:39;103386.00;;;5.18;99.27
73981;BME280;62348;51.412;5.436;2023-02-04T07:00:06;103390.03;;;5.22;99.66
73981;BME280;62348;51.412;5.436;2023-02-04T07:02:31;103389.00;;;5.23;99.55
73981;BME280;62348;51.412;5.436;2023-02-04T07:04:56;103389.19;;;5.22;99.17
73981;BME280;62348;51.412;5.436;2023-02-04T07:07:24;103399.91;;;5.22;99.51
73981;BME280;62348;51.412;5.436;2023-02-04T07:09:49;103396.22;;;5.23;99.26
73981;BME280;62348;51.412;5.436;2023-02-04T07:12:15;103404.25;;;5.23;99.70
73981;BME280;62348;51.412;5.436;2023-02-04T07:14:40;103409.47;;;5.24;99.99
73981;BME280;62348;51.412;5.436;2023-02-04T07:17:06;103410.97;;;5.27;99.85
73981;BME280;62348;51.412;5.436;2023-02-04T07:19:31;103410.16;;;5.26;100.00
73981;BME280;62348;51.412;5.436;2023-02-04T07:21:58;103413.66;;;5.27;99.86
73981;BME280;62348;51.412;5.436;2023-02-04T07:24:23;103415.19;;;5.30;100.00
73981;BME280;62348;51.412;5.436;2023-02-04T07:26:49;103416.03;;;5.30;99.98
73981;BME280;62348;51.412;5.436;2023-02-04T07:29:15;103413.19;;;5.32;100.00
73981;BME280;62348;51.412;5.436;2023-02-04T07:31:41;103408.66;;;5.32;100.00
73981;BME280;62348;51.412;5.436;2023-02-04T07:34:06;103421.91;;;5.34;100.00
73981;BME280;62348;51.412;5.436;2023-02-04T07:36:32;103430.78;;;5.34;100.00
73981;BME280;62348;51.412;5.436;2023-02-04T07:38:57;103431.47;;;5.36;100.00
73981;BME280;62348;51.412;5.436;2023-02-04T07:41:22;103429.63;;;5.37;100.00
73981;BME280;62348;51.412;5.436;2023-02-04T07:43:48;103433.16;;;5.37;100.00
73981;BME280;62348;51.412;5.436;2023-02-04T07:46:13;103430.31;;;5.39;100.00
73981;BME280;62348;51.412;5.436;2023-02-04T07:48:39;103432.81;;;5.40;100.00
73981;BME280;62348;51.412;5.436;2023-02-04T07:51:04;103435.34;;;5.42;100.00
73981;BME280;62348;51.412;5.436;2023-02-04T07:53:29;103436.03;;;5.44;100.00
73981;BME280;62348;51.412;5.436;2023-02-04T07:55:55;103438.56;;;5.45;100.00
73981;BME280;62348;51.412;5.436;2023-02-04T07:58:20;103444.59;;;5.47;100.00
73981;BME280;62348;51.412;5.436;2023-02-04T08:00:47;103436.38;;;5.49;100.00
73981;BME280;62348;51.412;5.436;2023-02-04T08:03:12;103442.44;;;5.51;100.00
73981;BME280;62348;51.412;5.436;2023-02-04T08:05:37;103455.53;;;5.54;100.00
73981;BME280;62348;51.412;5.436;2023-02-04T08:08:03;103447.28;;;5.56;100.00
73981;BME280;62348;51.412;5.436;2023-02-04T08:10:28;103457.72;;;5.59;100.00
73981;BME280;62348;51.412;5.436;2023-02-04T08:12:53;103458.53;;;5.59;100.00
73981;BME280;62348;51.412;5.436;2023-02-04T08:15:19;103462.75;;;5.62;100.00
73981;BME280;62348;51.412;5.436;2023-02-04T08:17:44;103459.22;;;5.61;100.00
73981;BME280;62348;51.412;5.436;2023-02-04T08:20:10;103452.69;;;5.64;100.00
73981;BME280;62348;51.412;5.436;2023-02-04T08:22:36;103456.06;;;5.66;100.00
73981;BME280;62348;51.412;5.436;2023-02-04T08:25:02;103451.19;;;5.70;100.00
73981;BME280;62348;51.412;5.436;2023-02-04T08:27:29;103458.06;;;5.72;100.00
73981;BME280;62348;51.412;5.436;2023-02-04T08:29:54;103462.78;;;5.78;100.00
73981;BME280;62348;51.412;5.436;2023-02-04T08:32:20;103460.78;;;5.80;100.00
73981;BME280;62348;51.412;5.436;2023-02-04T08:34:45;103469.34;;;5.84;100.00
73981;BME280;62348;51.412;5.436;2023-02-04T08:37:13;103470.00;;;5.86;100.00
73981;BME280;62348;51.412;5.436;2023-02-04T08:39:38;103482.13;;;5.90;100.00
73981;BME280;62348;51.412;5.436;2023-02-04T08:42:08;103482.81;;;5.92;100.00
73981;BME280;62348;51.412;5.436;2023-02-04T08:44:33;103474.44;;;5.95;100.00
73981;BME280;62348;51.412;5.436;2023-02-04T08:46:59;103475.09;;;5.97;100.00
73981;BME280;62348;51.412;5.436;2023-02-04T08:49:24;103479.31;;;6.00;100.00
73981;BME280;62348;51.412;5.436;2023-02-04T08:51:50;103481.50;;;6.04;100.00
73981;BME280;62348;51.412;5.436;2023-02-04T08:54:15;103482.00;;;6.08;100.00
73981;BME280;62348;51.412;5.436;2023-02-04T08:56:40;103483.72;;;6.09;100.00
73981;BME280;62348;51.412;5.436;2023-02-04T08:59:06;103488.56;;;6.14;100.00
73981;BME280;62348;51.412;5.436;2023-02-04T09:01:31;103481.19;;;6.16;100.00
73981;BME280;62348;51.412;5.436;2023-02-04T09:03:56;103486.22;;;6.19;100.00
73981;BME280;62348;51.412;5.436;2023-02-04T09:06:22;103487.72;;;6.21;100.00
73981;BME280;62348;51.412;5.436;2023-02-04T09:08:47;103493.78;;;6.23;100.00
73981;BME280;62348;51.412;5.436;2023-02-04T09:11:12;103491.75;;;6.25;100.00
73981;BME280;62348;51.412;5.436;2023-02-04T09:13:39;103496.97;;;6.27;100.00
73981;BME280;62348;51.412;5.436;2023-02-04T09:16:05;103507.41;;;6.30;100.00
73981;BME280;62348;51.412;5.436;2023-02-04T09:18:30;103500.84;;;6.33;100.00
73981;BME280;62348;51.412;5.436;2023-02-04T09:20:57;103499.84;;;6.34;100.00
73981;BME280;62348;51.412;5.436;2023-02-04T09:23:23;103502.19;;;6.37;100.00
73981;BME280;62348;51.412;5.436;2023-02-04T09:25:49;103503.50;;;6.41;100.00
73981;BME280;62348;51.412;5.436;2023-02-04T09:28:14;103504.88;;;6.45;100.00
73981;BME280;62348;51.412;5.436;2023-02-04T09:30:42;103506.22;;;6.49;100.00
73981;BME280;62348;51.412;5.436;2023-02-04T09:33:09;103509.59;;;6.51;100.00
73981;BME280;62348;51.412;5.436;2023-02-04T09:35:35;103514.59;;;6.54;100.00
73981;BME280;62348;51.412;5.436;2023-02-04T09:38:02;103507.03;;;6.58;100.00
73981;BME280;62348;51.412;5.436;2023-02-04T09:40:36;103511.25;;;6.60;100.00
73981;BME280;62348;51.412;5.436;2023-02-04T09:43:05;103510.75;;;6.65;100.00
73981;BME280;62348;51.412;5.436;2023-02-04T09:45:34;103514.75;;;6.69;100.00
73981;BME280;62348;51.412;5.436;2023-02-04T09:48:02;103516.31;;;6.72;100.00
73981;BME280;62348;51.412;5.436;2023-02-04T09:50:29;103527.53;;;6.75;100.00
73981;BME280;62348;51.412;5.436;2023-02-04T09:52:58;103531.91;;;6.76;100.00
73981;BME280;62348;51.412;5.436;2023-02-04T09:55:31;103529.88;;;6.78;100.00
73981;BME280;62348;51.412;5.436;2023-02-04T09:57:57;103522.31;;;6.82;100.00
73981;BME280;62348;51.412;5.436;2023-02-04T10:00:27;103526.72;;;6.83;100.00
73981;BME280;62348;51.412;5.436;2023-02-04T10:02:55;103518.63;;;6.83;100.00
73981;BME280;62348;51.412;5.436;2023-02-04T10:05:27;103526.19;;;6.88;100.00
73981;BME280;62348;51.412;5.436;2023-02-04T10:07:53;103525.00;;;6.90;100.00
73981;BME280;62348;51.412;5.436;2023-02-04T10:10:22;103520.13;;;6.94;100.00
73981;BME280;62348;51.412;5.436;2023-02-04T10:12:56;103536.91;;;6.96;100.00
73981;BME280;62348;51.412;5.436;2023-02-04T10:15:24;103530.38;;;6.98;100.00
73981;BME280;62348;51.412;5.436;2023-02-04T10:17:53;103535.22;;;7.03;100.00
73981;BME280;62348;51.412;5.436;2023-02-04T10:20:21;103535.06;;;7.04;100.00
73981;BME280;62348;51.412;5.436;2023-02-04T10:22:48;103533.72;;;7.09;100.00
73981;BME280;62348;51.412;5.436;2023-02-04T10:25:18;103535.72;;;7.15;100.00
73981;BME280;62348;51.412;5.436;2023-02-04T10:28:02;103537.72;;;7.21;100.00
73981;BME280;62348;51.412;5.436;2023-02-04T10:30:36;103532.66;;;7.26;100.00
73981;BME280;62348;51.412;5.436;2023-02-04T10:33:22;103538.38;;;7.31;99.74
73981;BME280;62348;51.412;5.436;2023-02-04T10:35:54;103538.50;;;7.38;99.25
73981;BME280;62348;51.412;5.436;2023-02-04T10:38:20;103541.00;;;7.39;98.17
73981;BME280;62348;51.412;5.436;2023-02-04T10:40:46;103544.75;;;7.38;98.08
73981;BME280;62348;51.412;5.436;2023-02-04T10:43:17;103540.84;;;7.41;97.35
73981;BME280;62348;51.412;5.436;2023-02-04T10:46:07;103538.00;;;7.42;96.92
73981;BME280;62348;51.412;5.436;2023-02-04T10:48:39;103543.34;;;7.51;96.50
73981;BME280;62348;51.412;5.436;2023-02-04T10:51:08;103553.59;;;7.55;96.62
73981;BME280;62348;51.412;5.436;2023-02-04T10:53:36;103541.97;;;7.55;95.70
73981;BME280;62348;51.412;5.436;2023-02-04T10:56:20;103543.66;;;7.56;94.89
73981;BME280;62348;51.412;5.436;2023-02-04T10:58:47;103543.66;;;7.56;95.44
73981;BME280;62348;51.412;5.436;2023-02-04T11:01:13;103549.88;;;7.56;94.67
73981;BME280;62348;51.412;5.436;2023-02-04T11:03:40;103547.84;;;7.58;94.61
73981;BME280;62348;51.412;5.436;2023-02-04T11:06:22;103542.97;;;7.62;94.71
73981;BME280;62348;51.412;5.436;2023-02-04T11:08:48;103545.47;;;7.63;93.60
73981;BME280;62348;51.412;5.436;2023-02-04T11:11:24;103543.78;;;7.62;94.18
73981;BME280;62348;51.412;5.436;2023-02-04T11:16:32;103543.63;;;7.64;93.80
73981;BME280;62348;51.412;5.436;2023-02-04T11:19:04;103535.91;;;7.61;93.20
73981;BME280;62348;51.412;5.436;2023-02-04T11:24:24;103534.16;;;7.76;93.58
73981;BME280;62348;51.412;5.436;2023-02-04T11:27:05;103532.78;;;7.80;93.54
73981;BME280;62348;51.412;5.436;2023-02-04T11:29:35;103535.59;;;7.87;92.82
73981;BME280;62348;51.412;5.436;2023-02-04T11:32:28;103534.03;;;7.93;93.28
73981;BME280;62348;51.412;5.436;2023-02-04T11:35:26;103540.94;;;7.95;92.68
73981;BME280;62348;51.412;5.436;2023-02-04T11:37:53;103539.91;;;7.96;92.13
73981;BME280;62348;51.412;5.436;2023-02-04T11:40:31;103539.75;;;7.98;92.13
73981;BME280;62348;51.412;5.436;2023-02-04T11:43:12;103538.38;;;8.02;92.37
73981;BME280;62348;51.412;5.436;2023-02-04T11:45:39;103538.19;;;8.04;92.19
73981;BME280;62348;51.412;5.436;2023-02-04T11:48:17;103534.28;;;8.06;92.56
73981;BME280;62348;51.412;5.436;2023-02-04T11:50:54;103528.22;;;8.12;92.26
73981;BME280;62348;51.412;5.436;2023-02-04T11:53:32;103527.00;;;8.15;90.06
73981;BME280;62348;51.412;5.436;2023-02-04T11:55:58;103523.31;;;8.16;90.19
73981;BME280;62348;51.412;5.436;2023-02-04T11:58:24;103532.88;;;8.18;90.88
73981;BME280;62348;51.412;5.436;2023-02-04T12:00:53;103540.63;;;8.21;91.04
73981;BME280;62348;51.412;5.436;2023-02-04T12:03:28;103537.56;;;8.25;90.83
73981;BME280;62348;51.412;5.436;2023-02-04T12:06:00;103524.91;;;8.25;89.97
73981;BME280;62348;51.412;5.436;2023-02-04T12:08:33;103524.91;;;8.25;89.54
73981;BME280;62348;51.412;5.436;2023-02-04T12:11:23;103531.97;;;8.26;89.34
73981;BME280;62348;51.412;5.436;2023-02-04T12:13:53;103525.28;;;8.22;88.37
73981;BME280;62348;51.412;5.436;2023-02-04T12:16:20;103534.19;;;8.23;88.78
73981;BME280;62348;51.412;5.436;2023-02-04T12:18:45;103523.41;;;8.23;88.82
73981;BME280;62348;51.412;5.436;2023-02-04T12:21:11;103528.16;;;8.20;88.69
73981;BME280;62348;51.412;5.436;2023-02-04T12:23:38;103535.22;;;8.21;88.89
73981;BME280;62348;51.412;5.436;2023-02-04T12:26:04;103536.53;;;8.26;89.09
73981;BME280;62348;51.412;5.436;2023-02-04T12:28:29;103530.13;;;8.27;89.12
73981;BME280;62348;51.412;5.436;2023-02-04T12:30:55;103542.59;;;8.28;88.60
73981;BME280;62348;51.412;5.436;2023-02-04T12:33:21;103548.66;;;8.30;88.05
73981;BME280;62348;51.412;5.436;2023-02-04T12:35:49;103537.84;;;8.30;86.50
73981;BME280;62348;51.412;5.436;2023-02-04T12:38:15;103537.84;;;8.30;87.47
73981;BME280;62348;51.412;5.436;2023-02-04T12:40:40;103529.78;;;8.30;87.36
73981;BME280;62348;51.412;5.436;2023-02-04T12:43:06;103535.34;;;8.28;86.91
73981;BME280;62348;51.412;5.436;2023-02-04T12:45:32;103537.38;;;8.26;86.27
73981;BME280;62348;51.412;5.436;2023-02-04T12:47:58;103527.59;;;8.25;86.21
73981;BME280;62348;51.412;5.436;2023-02-04T12:50:23;103534.03;;;8.24;86.32
73981;BME280;62348;51.412;5.436;2023-02-04T12:52:54;103534.84;;;8.25;87.49
73981;BME280;62348;51.412;5.436;2023-02-04T12:55:21;103534.84;;;8.25;86.71
73981;BME280;62348;51.412;5.436;2023-02-04T12:57:47;103534.69;;;8.26;86.27
73981;BME280;62348;51.412;5.436;2023-02-04T13:00:14;103549.00;;;8.27;86.63
73981;BME280;62348;51.412;5.436;2023-02-04T13:02:40;103532.66;;;8.28;86.23
73981;BME280;62348;51.412;5.436;2023-02-04T13:05:06;103543.25;;;8.30;85.40